createdAt,value
2019-05-29T00:04:38.387Z,13.29
2019-05-29T00:09:43.642Z,13.23
2019-05-29T00:14:49.008Z,13.19
2019-05-29T00:19:54.415Z,13.11
2019-05-29T00:24:59.692Z,12.91
2019-05-29T00:30:06.813Z,13.02
2019-05-29T00:35:12.525Z,12.75
2019-05-29T00:40:19.161Z,12.85
2019-05-29T00:45:25.166Z,12.63
2019-05-29T00:50:30.561Z,12.63
2019-05-29T00:55:35.888Z,12.63
2019-05-29T01:00:41.165Z,12.42
2019-05-29T01:05:46.542Z,12.57
2019-05-29T01:10:52.869Z,12.49
2019-05-29T01:15:58.007Z,12.31
2019-05-29T01:21:03.507Z,12.34
2019-05-29T01:26:08.848Z,12.28
2019-05-29T01:31:15.187Z,12.34
2019-05-29T01:36:22.497Z,12.11
2019-05-29T01:41:29.816Z,12.16
2019-05-29T01:46:36.546Z,12.17
2019-05-29T01:51:41.976Z,12.29
2019-05-29T01:56:47.325Z,12.17
2019-05-29T02:01:52.584Z,12.17
2019-05-29T02:06:57.974Z,12.23
2019-05-29T02:12:05.028Z,12.33
2019-05-29T02:17:10.194Z,12.45
2019-05-29T02:22:16.988Z,12.40
2019-05-29T02:27:23.405Z,12.54
2019-05-29T02:32:29.905Z,12.35
2019-05-29T02:37:36.682Z,12.41
2019-05-29T02:42:42.205Z,12.42
2019-05-29T02:47:47.506Z,12.16
2019-05-29T02:52:52.773Z,12.05
2019-05-29T02:57:58.047Z,12.13
2019-05-29T03:03:03.446Z,12.48
2019-05-29T03:08:08.808Z,12.37
2019-05-29T03:13:14.108Z,12.28
2019-05-29T03:18:19.384Z,12.47
2019-05-29T03:23:26.441Z,12.34
2019-05-29T03:28:36.169Z,12.39
2019-05-29T03:33:48.894Z,12.35
2019-05-29T03:38:49.610Z,12.33
2019-05-29T03:43:56.826Z,12.22
2019-05-29T03:49:02.048Z,12.27
2019-05-29T03:54:07.454Z,12.37
2019-05-29T03:59:12.660Z,12.38
2019-05-29T04:04:17.868Z,12.30
2019-05-29T04:09:24.591Z,12.53
2019-05-29T04:14:31.535Z,12.26
2019-05-29T04:19:38.817Z,12.19
2019-05-29T04:24:48.745Z,12.02
2019-05-29T04:29:53.987Z,12.38
2019-05-29T04:35:00.894Z,12.31
2019-05-29T04:40:10.811Z,12.51
2019-05-29T04:45:16.661Z,12.17
2019-05-29T04:50:22.139Z,12.13
2019-05-29T04:55:28.628Z,12.33
2019-05-29T05:00:35.100Z,12.23
2019-05-29T05:05:40.786Z,12.16
2019-05-29T05:10:46.451Z,12.05
2019-05-29T05:15:56.027Z,12.20
2019-05-29T05:21:01.745Z,11.97
2019-05-29T05:26:08.773Z,12.17
2019-05-29T05:31:14.007Z,12.34
2019-05-29T05:36:21.582Z,12.29
2019-05-29T05:41:27.240Z,12.71
2019-05-29T05:46:32.963Z,12.47
2019-05-29T05:51:42.810Z,12.27
2019-05-29T05:56:45.455Z,12.23
2019-05-29T06:02:14.389Z,12.37
2019-05-29T06:07:22.263Z,12.24
2019-05-29T06:12:27.962Z,12.80
2019-05-29T06:17:34.419Z,12.77
2019-05-29T06:22:41.031Z,12.83
2019-05-29T06:27:46.509Z,13.15
2019-05-29T06:32:53.047Z,12.83
2019-05-29T06:37:59.063Z,12.41
2019-05-29T06:43:11.803Z,12.46
2019-05-29T06:48:37.917Z,12.57
2019-05-29T06:53:28.886Z,12.38
2019-05-29T06:58:36.347Z,12.65
2019-05-29T07:03:41.874Z,12.98
2019-05-29T07:08:49.695Z,13.28
2019-05-29T07:13:53.956Z,13.28
2019-05-29T07:24:08.606Z,14.88
2019-05-29T07:29:14.849Z,14.41
2019-05-29T07:34:22.334Z,14.35
2019-05-29T07:39:33.774Z,15.02
2019-05-29T07:44:43.984Z,14.55
2019-05-29T07:49:50.329Z,15.04
2019-05-29T07:54:55.964Z,15.06
2019-05-29T08:00:01.225Z,15.40
2019-05-29T08:05:08.726Z,14.95
2019-05-29T08:10:22.566Z,14.29
2019-05-29T08:15:52.086Z,14.87
2019-05-29T08:20:48.569Z,14.87
2019-05-29T08:25:53.742Z,14.72
2019-05-29T08:30:59.107Z,15.29
2019-05-29T08:36:07.194Z,14.81
2019-05-29T08:41:14.777Z,14.65
2019-05-29T08:46:22.729Z,14.92
2019-05-29T08:51:29.033Z,14.59
2019-05-29T08:56:34.368Z,14.90
2019-05-29T09:02:02.198Z,15.32
2019-05-29T09:07:07.507Z,15.21
2019-05-29T09:12:14.787Z,15.12
2019-05-29T09:17:24.320Z,15.38
2019-05-29T09:22:29.965Z,15.98
2019-05-29T09:27:35.289Z,15.20
2019-05-29T09:32:50.336Z,15.84
2019-05-29T09:37:47.972Z,15.35
2019-05-29T09:42:53.200Z,14.65
2019-05-29T09:47:58.979Z,15.23
2019-05-29T09:53:04.516Z,15.89
2019-05-29T09:58:09.750Z,16.65
2019-05-29T10:03:15.036Z,16.12
2019-05-29T10:08:22.319Z,16.49
2019-05-29T10:13:29.827Z,16.73
2019-05-29T10:18:36.066Z,17.38
2019-05-29T10:23:41.735Z,17.77
2019-05-29T10:29:02.029Z,16.65
2019-05-29T10:33:58.855Z,17.49
2019-05-29T10:39:05.621Z,16.51
2019-05-29T10:44:13.204Z,16.54
2019-05-29T10:49:21.695Z,17.42
2019-05-29T10:54:26.937Z,17.77
2019-05-29T10:59:32.184Z,16.99
2019-05-29T11:04:37.702Z,16.14
2019-05-29T11:09:44.912Z,16.04
2019-05-29T11:14:50.751Z,16.57
2019-05-29T11:19:56.051Z,17.35
2019-05-29T11:25:21.027Z,16.28
2019-05-29T11:30:10.265Z,16.46
2019-05-29T11:35:16.078Z,16.93
2019-05-29T11:40:21.921Z,17.25
2019-05-29T11:45:27.220Z,17.43
2019-05-29T11:50:32.972Z,17.43
2019-05-29T11:55:38.209Z,17.15
2019-05-29T12:00:43.405Z,17.81
2019-05-29T12:05:48.864Z,17.97
2019-05-29T12:10:55.277Z,17.19
2019-05-29T12:16:01.828Z,18.35
2019-05-29T12:21:08.302Z,18.83
2019-05-29T12:26:22.318Z,18.25
2019-05-29T12:31:23.125Z,18.24
2019-05-29T12:36:29.419Z,18.24
2019-05-29T12:41:35.829Z,18.18
2019-05-29T12:46:41.184Z,18.55
2019-05-29T12:51:46.996Z,18.31
2019-05-29T12:56:52.305Z,18.08
2019-05-29T13:02:00.658Z,18.07
2019-05-29T13:07:06.037Z,17.30
2019-05-29T13:12:11.241Z,18.47
2019-05-29T13:17:16.487Z,17.93
2019-05-29T13:22:21.990Z,18.83
2019-05-29T13:27:27.202Z,19.20
2019-05-29T13:32:32.371Z,19.17
2019-05-29T13:37:37.715Z,19.39
2019-05-29T13:42:42.867Z,19.24
2019-05-29T13:47:48.072Z,18.91
2019-05-29T13:52:54.779Z,19.74
2019-05-29T13:58:01.705Z,18.83
2019-05-29T14:03:09.240Z,17.68
2019-05-29T14:08:14.777Z,18.82
2019-05-29T14:13:20.024Z,18.81
2019-05-29T14:18:25.249Z,19.47
2019-05-29T14:23:30.610Z,18.90
2019-05-29T14:28:35.858Z,18.92
2019-05-29T14:33:41.053Z,17.87
2019-05-29T14:38:46.535Z,18.40
2019-05-29T14:43:51.685Z,19.12
2019-05-29T14:48:56.858Z,18.56
2019-05-29T14:54:04.752Z,18.24
2019-05-29T14:59:11.123Z,18.23
2019-05-29T15:04:16.427Z,18.82
2019-05-29T15:09:21.751Z,19.19
2019-05-29T15:14:27.030Z,19.37
2019-05-29T15:19:32.400Z,18.99
2019-05-29T15:24:37.774Z,18.49
2019-05-29T15:29:43.095Z,17.95
2019-05-29T15:34:49.936Z,18.37
2019-05-29T15:39:55.304Z,18.44
2019-05-29T15:45:00.561Z,17.97
2019-05-29T15:50:06.899Z,18.00
2019-05-29T15:55:28.209Z,18.50
2019-05-29T16:00:21.920Z,18.82
2019-05-29T16:05:27.549Z,19.02
2019-05-29T16:10:33.098Z,18.25
2019-05-29T16:15:38.309Z,18.81
2019-05-29T16:20:43.591Z,18.73
2019-05-29T16:25:49.161Z,18.47
2019-05-29T16:30:54.535Z,19.15
2019-05-29T16:35:59.972Z,19.45
2019-05-29T16:41:05.347Z,19.67
2019-05-29T16:46:14.194Z,19.55
2019-05-29T16:51:18.691Z,19.11
2019-05-29T16:56:24.678Z,18.94
2019-05-29T17:01:29.986Z,19.16
2019-05-29T17:06:35.124Z,19.32
2019-05-29T17:11:40.577Z,19.08
2019-05-29T17:16:45.948Z,18.61
2019-05-29T17:21:51.329Z,19.01
2019-05-29T17:26:56.667Z,19.28
2019-05-29T17:32:01.967Z,18.86
2019-05-29T17:37:07.097Z,18.61
2019-05-29T17:42:12.400Z,18.43
2019-05-29T17:47:17.803Z,18.36
2019-05-29T17:52:23.957Z,17.97
2019-05-29T17:57:29.333Z,17.91
2019-05-29T18:02:50.895Z,17.70
2019-05-29T18:07:41.898Z,17.78
2019-05-29T18:12:47.157Z,17.29
2019-05-29T18:17:52.461Z,17.61
2019-05-29T18:22:57.814Z,17.41
2019-05-29T18:28:03.336Z,17.24
2019-05-29T18:33:08.663Z,17.09
2019-05-29T18:38:14.436Z,16.85
2019-05-29T18:43:20.378Z,16.75
2019-05-29T18:48:25.611Z,16.69
2019-05-29T18:53:33.112Z,16.45
2019-05-29T18:58:38.532Z,16.50
2019-05-29T19:03:46.043Z,16.39
2019-05-29T19:08:51.245Z,16.38
2019-05-29T19:13:56.837Z,16.05
2019-05-29T19:19:01.985Z,15.80
2019-05-29T19:24:07.234Z,15.56
2019-05-29T19:29:12.779Z,15.24
2019-05-29T19:34:17.991Z,14.92
2019-05-29T19:39:25.815Z,14.94
2019-05-29T19:44:32.354Z,15.44
2019-05-29T19:49:37.675Z,14.94
2019-05-29T19:54:42.900Z,15.04
2019-05-29T19:59:48.591Z,14.59
2019-05-29T20:04:53.899Z,14.83
2019-05-29T20:09:59.197Z,14.34
2019-05-29T20:15:04.693Z,14.35
2019-05-29T20:20:10.489Z,14.44
2019-05-29T20:25:15.937Z,14.31
2019-05-29T20:30:21.473Z,13.73
2019-05-29T20:35:26.698Z,13.89
2019-05-29T20:40:32.983Z,13.49
2019-05-29T20:45:39.628Z,13.92
2019-05-29T20:50:45.115Z,13.53
2019-05-29T20:55:50.912Z,13.50
2019-05-29T21:00:56.461Z,13.28
2019-05-29T21:06:01.742Z,13.38
2019-05-29T21:11:06.929Z,13.17
2019-05-29T21:16:12.389Z,13.03
2019-05-29T21:21:17.907Z,12.72
2019-05-29T21:26:23.212Z,12.75
2019-05-29T21:31:28.493Z,12.30
2019-05-29T21:36:33.761Z,11.67
2019-05-29T21:41:38.915Z,11.57
2019-05-29T21:46:45.439Z,11.64
2019-05-29T21:51:50.767Z,11.72
2019-05-29T21:56:56.091Z,11.01
2019-05-29T22:02:01.835Z,11.75
2019-05-29T22:07:07.720Z,11.36
2019-05-29T22:12:14.529Z,11.04
2019-05-29T22:17:19.815Z,11.67
2019-05-29T22:22:24.936Z,11.32
2019-05-29T22:27:30.186Z,11.40
2019-05-29T22:32:35.438Z,10.89
2019-05-29T22:37:41.703Z,10.94
2019-05-29T22:42:46.966Z,10.92
2019-05-29T22:47:53.589Z,10.73
2019-05-29T22:52:59.940Z,10.64
2019-05-29T22:58:05.139Z,10.42
2019-05-29T23:03:10.745Z,10.34
2019-05-29T23:08:18.362Z,10.69
2019-05-29T23:13:27.214Z,10.97
2019-05-29T23:18:34.275Z,10.75
2019-05-29T23:23:40.574Z,9.85
2019-05-29T23:28:45.813Z,9.91
2019-05-29T23:33:52.746Z,9.87
2019-05-29T23:38:59.240Z,9.88
2019-05-29T23:44:05.035Z,9.62
2019-05-29T23:49:10.508Z,9.48
2019-05-29T23:54:16.180Z,9.36
2019-05-29T23:59:23.440Z,9.20
